Poole, Kentucky
Current Conditions -  °F | °C
As of 11:55 AM on Tuesday 21 Oct 2014 (Local Time) from K2I0 Reporting Station
Clear Clear  
Wind Chill: 65°   Ceiling: Unl
Heat Index: 65°   Visibility: 10mi
Dew Point: 49°   Wind: 0mph
Humidity: 55%   Direction: NA
Pressure: 30.09"   Gusts: NA
Location:  37.64°N, 87.64°W
Report Text: K2I0 211655Z AUTO 00000KT 10SM CLR 19/09 A3009 RMK AO2 T01860093
Loading
Personal Weather Stations






























Interactive Weather Map New forecast layout! Learn more

10-Day Weather Forecast

Advertisements
Track Severe Weather on mobile